Hovedside
METAR-TAF:

METAR-TAF

Lufthavner :

Wallis, Frankrike

breddegrad: 13-14S, lengdegrad: 176-10W, høyde over havet: 23 m

METAR: fraværende

Tid: 11:51 (23:51 UTC)

Varsel

Denne rapporten ble laget for 51 minutter siden, klokken 23:00 UTC
Varsel gyldig fra 14. klokken 00 UTC til 14. klokken 24 UTC
Vind 10 kt fra Nord
Sikt 10 km eller mer
Spredte skyer i en høyde av 2000 ft
Brutte skyer i en høyde av 5000 ft
Sannsynlighet 40% :
Midlertidig
fra 14. klokken 00 UTC til 14. klokken 24 UTC
Vind 10 kt fra Vest med vindkast opp mot 20 kt
Sikt: 2000 m
Brutte skyer i en høyde av 800 ft
Brutte skyer i en høyde av 1200 ft
Få skyer i en høyde av 1500 ft, Bygeskyer.
Spredte skyer i en høyde av 2000 ft, Tårnskyer (cumulus).
regnbyger

TAF: NLWW 132300Z 1400/1424 01010KT 9999 SCT020 BKN050 PROB40 TEMPO 1400/1424 27010G20KT 2000 SHRA BKN008 BKN012 FEW015CB SCT020TCU

Værobservasjoner og værvarsel for over 4000 flyplasser (METAR- og TAF-rapporter).

Tilgjengelige stasjoner er representert av de røde og gule prikkene på kartet.

Hold musepekeren over prikken for å se navnet på stasjonen.

Klikk så for å se værobservasjoner og -varsler.

For å forandre kartet kan du klikke på den grønne knappen med svart kryss for å zoome inn, på den grønne knappen med strek for å zoome ut, eller på de grønne pilene for å se tilstøtende kart.


METAR-TAF: